Time;durP1;ratioP1;P1;durP2;ratioP2;P2;SDS_P1;SDS_P2;PMS_P1;PMS_P2;Temp;Humidity;BMP_temperature;BMP_pressure;BME280_temperature;BME280_humidity;BME280_pressure;Samples;Min_cycle;Max_cycle;Signal;HPM_P1;HPM_P2
2022/03/09 00:01:37;;;;;;;23.87;22.97;;;19.30;40.50;;;;;;5071791;28;20778;-44
2022/03/09 00:04:04;;;;;;;25.20;24.20;;;19.30;40.70;;;;;;5071799;28;20447;-46
2022/03/09 00:06:31;;;;;;;25.07;24.10;;;19.20;40.70;;;;;;5071748;28;20455;-44
2022/03/09 00:08:58;;;;;;;23.80;22.90;;;19.20;40.80;;;;;;5071340;28;20474;-43
2022/03/09 00:11:25;;;;;;;24.23;23.33;;;19.10;40.80;;;;;;5071468;28;20988;-43
2022/03/09 00:13:53;;;;;;;22.97;22.07;;;19.00;40.90;;;;;;5071708;28;20450;-43
2022/03/09 00:16:20;;;;;;;24.67;23.77;;;19.00;41.00;;;;;;5071679;28;20440;-42
2022/03/09 00:18:47;;;;;;;24.00;23.20;;;18.90;41.10;;;;;;5071327;28;20471;-42
2022/03/09 00:21:14;;;;;;;25.50;24.50;;;18.90;41.30;;;;;;5071638;28;20458;-43
2022/03/09 00:23:43;;;;;;;24.67;23.77;;;18.80;41.30;;;;;;5071494;28;20829;-43
2022/03/09 00:26:10;;;;;;;23.70;22.90;;;18.80;41.50;;;;;;5071502;28;20454;-44
2022/03/09 00:28:37;;;;;;;24.77;23.87;;;18.80;41.50;;;;;;5075362;28;20467;-43
2022/03/09 00:31:05;;;;;;;25.73;24.53;;;18.70;41.60;;;;;;5075485;28;20490;-43
2022/03/09 00:33:32;;;;;;;24.80;23.90;;;18.60;41.60;;;;;;5075581;28;20933;-45
2022/03/09 00:35:59;;;;;;;25.30;24.20;;;18.60;41.70;;;;;;5075601;28;20439;-42
2022/03/09 00:38:26;;;;;;;25.00;24.00;;;18.50;41.80;;;;;;5075265;28;20467;-44
2022/03/09 00:40:53;;;;;;;24.73;23.83;;;18.50;41.90;;;;;;5075496;28;20955;-43
2022/03/09 00:43:19;;;;;;;24.43;23.43;;;18.50;42.00;;;;;;5075375;28;20933;-42
2022/03/09 00:45:46;;;;;;;25.43;24.43;;;18.40;42.00;;;;;;5075348;28;20447;-43
2022/03/09 00:48:14;;;;;;;24.83;23.93;;;18.40;42.10;;;;;;5075038;28;20467;-43
2022/03/09 00:50:41;;;;;;;27.63;26.63;;;18.40;42.10;;;;;;5075160;28;20479;-44
2022/03/09 00:53:08;;;;;;;23.27;22.40;;;18.30;42.20;;;;;;5075179;28;20446;-44
2022/03/09 00:55:34;;;;;;;23.83;22.93;;;18.30;42.20;;;;;;5075136;28;20448;-44
2022/03/09 00:58:01;;;;;;;23.10;22.20;;;18.30;42.20;;;;;;5074864;28;20840;-44
2022/03/09 01:00:28;;;;;;;23.47;22.57;;;18.30;42.20;;;;;;5075173;28;20816;-44
2022/03/09 01:02:55;;;;;;;22.77;21.87;;;18.20;42.30;;;;;;5075031;28;20454;-44
2022/03/09 01:05:23;;;;;;;22.80;22.00;;;18.20;42.30;;;;;;5074991;28;20917;-44
2022/03/09 01:07:49;;;;;;;22.87;21.97;;;18.10;42.30;;;;;;5074539;28;20463;-44
2022/03/09 01:10:16;;;;;;;22.80;21.90;;;18.10;42.30;;;;;;5074906;28;20447;-44
2022/03/09 01:12:45;;;;;;;22.47;21.67;;;18.10;42.30;;;;;;5074692;28;20478;-43
2022/03/09 01:15:12;;;;;;;22.40;21.50;;;18.10;42.30;;;;;;5074749;28;20447;-44
2022/03/09 01:17:39;;;;;;;24.27;23.37;;;18.10;42.30;;;;;;5074575;28;20493;-46
2022/03/09 01:20:07;;;;;;;23.20;22.30;;;18.10;42.20;;;;;;5074517;28;20450;-44
2022/03/09 01:22:35;;;;;;;22.90;22.00;;;18.00;42.20;;;;;;5074644;28;20488;-43
2022/03/09 01:25:02;;;;;;;23.97;23.03;;;18.00;42.20;;;;;;5074674;28;20451;-44
2022/03/09 01:27:29;;;;;;;24.30;23.40;;;18.00;42.20;;;;;;5074568;28;20498;-44
2022/03/09 01:29:56;;;;;;;25.70;24.70;;;18.00;42.30;;;;;;5074285;28;20958;-44
2022/03/09 01:32:23;;;;;;;26.40;25.40;;;17.90;42.30;;;;;;5074487;28;20483;-43
2022/03/09 01:34:50;;;;;;;25.33;24.43;;;17.90;42.40;;;;;;5074441;28;20458;-44
2022/03/09 01:37:17;;;;;;;26.73;25.53;;;17.80;42.40;;;;;;5074243;28;21011;-43
2022/03/09 01:39:45;;;;;;;26.07;25.17;;;17.80;42.40;;;;;;5074103;28;20828;-43
2022/03/09 01:42:12;;;;;;;25.73;24.73;;;17.80;42.50;;;;;;5074290;28;20440;-43
2022/03/09 01:44:39;;;;;;;25.20;24.30;;;17.70;42.40;;;;;;5074163;28;20450;-43
2022/03/09 01:47:06;;;;;;;25.50;24.50;;;17.70;42.50;;;;;;5074282;28;20474;-43
2022/03/09 01:49:33;;;;;;;23.50;22.60;;;17.70;42.60;;;;;;5073963;28;20450;-42
2022/03/09 01:52:01;;;;;;;22.77;21.97;;;17.70;42.60;;;;;;5073929;28;20493;-44
2022/03/09 01:54:28;;;;;;;23.30;22.40;;;17.60;42.60;;;;;;5074191;28;20440;-43
2022/03/09 01:56:57;;;;;;;24.57;23.67;;;17.60;42.70;;;;;;5073850;28;20466;-43
2022/03/09 01:59:23;;;;;;;23.83;22.93;;;17.60;42.80;;;;;;5073798;28;20447;-43
2022/03/09 02:01:51;;;;;;;23.70;22.80;;;17.60;42.80;;;;;;5074053;28;20463;-44
2022/03/09 02:04:18;;;;;;;25.07;24.13;;;17.60;42.90;;;;;;5073905;28;20474;-43
2022/03/09 02:06:45;;;;;;;24.20;23.30;;;17.50;42.90;;;;;;5073722;28;20497;-43
2022/03/09 02:11:58;;;;;;;22.70;21.90;;;17.50;43.00;;;;;;5073843;28;20538;-44
2022/03/09 02:14:30;;;;;;;23.50;22.60;;;17.50;43.00;;;;;;5073732;28;20466;-43
2022/03/09 02:16:58;;;;;;;24.53;23.63;;;17.40;43.00;;;;;;5073559;28;20472;-44
2022/03/09 02:19:25;;;;;;;25.20;24.20;;;17.40;43.00;;;;;;5073486;28;20800;-45
2022/03/09 02:21:55;;;;;;;23.23;22.37;;;17.40;43.10;;;;;;5073616;28;20435;-42
2022/03/09 02:24:23;;;;;;;24.83;23.90;;;17.40;43.10;;;;;;5073895;28;20440;-43
2022/03/09 02:26:51;;;;;;;25.00;24.10;;;17.30;43.10;;;;;;5073347;28;20451;-42
2022/03/09 02:29:18;;;;;;;23.40;22.50;;;17.30;43.20;;;;;;5073166;28;20443;-42
2022/03/09 02:31:44;;;;;;;24.60;23.70;;;17.30;43.30;;;;;;5073315;28;20482;-42
2022/03/09 02:34:11;;;;;;;23.50;22.70;;;17.20;43.20;;;;;;5073359;28;20505;-43
2022/03/09 02:36:38;;;;;;;25.10;24.20;;;17.20;43.20;;;;;;5073125;28;20454;-43
2022/03/09 02:39:05;;;;;;;23.90;23.00;;;17.20;43.20;;;;;;5073008;28;20814;-43
2022/03/09 02:41:34;;;;;;;23.37;22.47;;;17.20;43.30;;;;;;5073172;28;20463;-43
2022/03/09 02:44:01;;;;;;;24.90;24.00;;;17.20;43.30;;;;;;5073122;28;20505;-43
2022/03/09 02:46:28;;;;;;;23.40;22.50;;;17.10;43.30;;;;;;5073119;28;20447;-42
2022/03/09 02:48:55;;;;;;;22.90;22.03;;;17.10;43.40;;;;;;5072451;28;20466;-42
2022/03/09 02:51:22;;;;;;;23.57;22.67;;;17.10;43.40;;;;;;5072572;28;20866;-43
2022/03/09 02:53:49;;;;;;;23.17;22.27;;;17.10;43.50;;;;;;5072935;28;20450;-43
2022/03/09 02:56:16;;;;;;;23.20;22.40;;;17.00;43.50;;;;;;5072850;28;20877;-43
2022/03/09 02:58:44;;;;;;;23.77;22.87;;;17.00;43.50;;;;;;5072438;28;20468;-43
2022/03/09 03:01:13;;;;;;;22.80;21.90;;;17.00;43.50;;;;;;5072777;28;20443;-43
2022/03/09 03:03:39;;;;;;;22.93;22.13;;;17.00;43.50;;;;;;5072621;28;20811;-43
2022/03/09 03:06:06;;;;;;;24.53;23.63;;;17.00;43.50;;;;;;5072763;28;20439;-43
2022/03/09 03:08:33;;;;;;;24.67;23.77;;;16.90;43.50;;;;;;5072426;28;20486;-43
2022/03/09 03:11:00;;;;;;;24.23;23.33;;;16.90;43.60;;;;;;5072358;28;20439;-45
2022/03/09 03:13:27;;;;;;;25.03;24.03;;;16.90;43.60;;;;;;5072564;28;20439;-43
2022/03/09 03:15:55;;;;;;;22.60;21.80;;;16.80;43.60;;;;;;5072491;28;20450;-46
2022/03/09 03:18:22;;;;;;;23.37;22.47;;;16.80;43.70;;;;;;5072240;28;20455;-46
2022/03/09 03:20:51;;;;;;;23.33;22.43;;;16.80;43.70;;;;;;5072335;28;20450;-43
2022/03/09 03:23:18;;;;;;;23.50;22.70;;;16.80;43.70;;;;;;5072390;28;20446;-45
2022/03/09 03:25:45;;;;;;;24.80;23.83;;;16.80;43.80;;;;;;5072302;28;20443;-42
2022/03/09 03:28:12;;;;;;;24.07;23.17;;;16.70;43.80;;;;;;5072064;28;20835;-42
2022/03/09 03:30:38;;;;;;;24.77;23.80;;;16.70;43.80;;;;;;5072106;28;20432;-43
2022/03/09 03:33:06;;;;;;;24.60;23.60;;;16.80;43.90;;;;;;5072173;28;20490;-42
2022/03/09 03:35:33;;;;;;;23.60;22.80;;;16.80;43.80;;;;;;5072114;28;20447;-43
2022/03/09 03:38:00;;;;;;;22.40;21.60;;;16.70;43.80;;;;;;5071822;28;20463;-43
2022/03/09 03:40:27;;;;;;;23.60;22.70;;;16.70;43.80;;;;;;5071932;28;20447;-45
2022/03/09 03:42:54;;;;;;;23.80;22.90;;;16.70;43.80;;;;;;5072019;28;20448;-44
2022/03/09 03:45:20;;;;;;;24.37;23.47;;;16.70;43.90;;;;;;5072024;28;20975;-44
2022/03/09 03:47:47;;;;;;;24.17;23.27;;;16.60;43.90;;;;;;5071771;28;20503;-45
2022/03/09 03:50:15;;;;;;;23.30;22.50;;;16.60;43.90;;;;;;5071958;28;20773;-42
2022/03/09 03:52:42;;;;;;;24.67;23.77;;;16.60;43.90;;;;;;5071894;28;20495;-43
2022/03/09 03:55:09;;;;;;;23.57;22.67;;;16.60;43.90;;;;;;5071910;28;20474;-43
2022/03/09 03:57:36;;;;;;;24.43;23.47;;;16.60;44.00;;;;;;5071695;28;20476;-42
2022/03/09 04:00:03;;;;;;;24.83;23.83;;;16.60;44.00;;;;;;5071590;28;20448;-42
2022/03/09 04:02:30;;;;;;;25.77;24.73;;;16.60;44.00;;;;;;5070957;28;20443;-44
2022/03/09 04:04:56;;;;;;;25.23;24.30;;;16.50;43.90;;;;;;5071659;28;20933;-42
2022/03/09 04:07:25;;;;;;;25.27;24.30;;;16.50;43.90;;;;;;5071569;28;20464;-47
2022/03/09 04:09:51;;;;;;;24.50;23.60;;;16.50;44.00;;;;;;5071493;28;20448;-44
2022/03/09 04:12:18;;;;;;;24.00;23.00;;;16.50;44.10;;;;;;5071594;28;20861;-42
2022/03/09 04:14:45;;;;;;;25.93;24.93;;;16.50;44.10;;;;;;5071687;28;20448;-42
2022/03/09 04:17:12;;;;;;;24.00;23.10;;;16.50;44.10;;;;;;5071538;28;20490;-45
2022/03/09 04:19:38;;;;;;;23.23;22.33;;;16.50;44.10;;;;;;5071394;28;20814;-43
2022/03/09 04:22:06;;;;;;;23.73;22.83;;;16.40;44.00;;;;;;5071648;28;20785;-42
2022/03/09 04:24:34;;;;;;;23.10;22.20;;;16.40;44.00;;;;;;5071527;28;20439;-43
2022/03/09 04:27:01;;;;;;;23.20;22.30;;;16.40;44.10;;;;;;5071397;28;20486;-42
2022/03/09 04:29:27;;;;;;;23.73;22.83;;;16.40;44.10;;;;;;5071312;28;20447;-42
2022/03/09 04:31:54;;;;;;;23.20;22.30;;;16.30;44.10;;;;;;5071413;28;20479;-43
2022/03/09 04:34:21;;;;;;;24.93;23.93;;;16.30;44.20;;;;;;5071382;28;20443;-42
2022/03/09 04:36:47;;;;;;;24.47;23.47;;;16.30;44.20;;;;;;5071330;28;20465;-42
2022/03/09 04:39:14;;;;;;;23.03;22.13;;;16.30;44.20;;;;;;5071185;28;20821;-43
2022/03/09 04:41:42;;;;;;;23.67;22.77;;;16.30;44.10;;;;;;5071436;28;20572;-42
2022/03/09 04:44:09;;;;;;;23.70;22.70;;;16.30;44.20;;;;;;5071344;28;20451;-42
2022/03/09 04:46:36;;;;;;;23.30;22.40;;;16.30;44.20;;;;;;5071313;28;20444;-42
2022/03/09 04:49:03;;;;;;;24.07;23.17;;;16.30;44.30;;;;;;5071062;28;20450;-43
2022/03/09 04:51:29;;;;;;;23.70;22.80;;;16.30;44.30;;;;;;5071272;28;20805;-42
2022/03/09 04:53:56;;;;;;;24.50;23.60;;;16.30;44.30;;;;;;5071218;28;20513;-42
2022/03/09 04:56:23;;;;;;;23.80;22.90;;;16.30;44.30;;;;;;5071167;28;20451;-42
2022/03/09 04:58:51;;;;;;;23.97;23.07;;;16.30;44.40;;;;;;5070939;28;20483;-42
2022/03/09 05:01:17;;;;;;;25.27;24.27;;;16.20;44.30;;;;;;5071073;28;20443;-46
2022/03/09 05:03:44;;;;;;;24.87;23.87;;;16.20;44.40;;;;;;5071238;28;20440;-42
2022/03/09 05:06:13;;;;;;;27.10;26.00;;;16.20;44.50;;;;;;5071148;28;20459;-43
2022/03/09 05:08:39;;;;;;;26.50;25.40;;;16.10;44.60;;;;;;5070885;28;20490;-43
2022/03/09 05:11:06;;;;;;;26.03;25.03;;;16.10;44.80;;;;;;5071051;28;20436;-42
2022/03/09 05:13:33;;;;;;;26.33;25.23;;;16.10;44.90;;;;;;5073191;28;20480;-44
2022/03/09 05:16:01;;;;;;;25.70;24.60;;;16.10;45.00;;;;;;5074705;28;20450;-43
2022/03/09 05:18:28;;;;;;;26.00;25.00;;;16.10;44.90;;;;;;5074617;28;20467;-43
2022/03/09 05:20:55;;;;;;;25.33;24.33;;;16.00;45.00;;;;;;5074624;28;20803;-43
2022/03/09 05:23:21;;;;;;;26.23;25.13;;;16.00;45.00;;;;;;5074613;28;20952;-43
2022/03/09 05:25:48;;;;;;;25.87;24.87;;;16.00;45.00;;;;;;5074691;28;20439;-44
2022/03/09 05:28:15;;;;;;;25.27;24.17;;;15.90;44.90;;;;;;5074256;28;20971;-42
2022/03/09 05:30:42;;;;;;;25.30;24.30;;;16.00;45.10;;;;;;5074374;28;20439;-43
2022/03/09 05:33:10;;;;;;;24.17;23.17;;;15.90;45.10;;;;;;5074473;28;20812;-43
2022/03/09 05:35:37;;;;;;;26.47;25.37;;;15.90;45.20;;;;;;5074444;28;20812;-42
2022/03/09 05:38:04;;;;;;;28.20;26.70;;;15.90;45.80;;;;;;5074099;28;20555;-43
2022/03/09 05:40:30;;;;;;;30.80;27.80;;;15.90;47.60;;;;;;5074286;28;20454;-43
2022/03/09 05:42:57;;;;;;;27.07;25.43;;;15.90;51.40;;;;;;5074421;28;20454;-42
2022/03/09 05:45:24;;;;;;;25.70;24.20;;;16.00;52.00;;;;;;5074129;28;20800;-46
2022/03/09 05:47:51;;;;;;;26.77;25.07;;;16.10;52.90;;;;;;5074093;28;20470;-46
2022/03/09 05:50:19;;;;;;;27.17;25.40;;;16.20;56.30;;;;;;5074040;28;20454;-43
2022/03/09 05:52:46;;;;;;;28.07;26.40;;;16.90;58.10;;;;;;5069823;28;20476;-42
2022/03/09 05:55:13;;;;;;;27.23;25.57;;;17.30;57.10;;;;;;5065000;28;20440;-42
2022/03/09 05:57:40;;;;;;;28.00;25.63;;;17.40;56.50;;;;;;5053849;28;20537;-43
2022/03/09 06:00:07;;;;;;;29.57;28.07;;;17.70;54.80;;;;;;5053861;28;20932;-46
2022/03/09 06:02:34;;;;;;;28.80;27.17;;;17.90;53.30;;;;;;5053559;28;20436;-46
2022/03/09 06:05:01;;;;;;;28.17;26.63;;;18.10;52.00;;;;;;5053530;28;20453;-44
2022/03/09 06:07:30;;;;;;;29.40;27.57;;;18.30;51.00;;;;;;5053829;28;20464;-44
2022/03/09 06:09:57;;;;;;;27.67;25.93;;;18.40;50.00;;;;;;5053563;28;20452;-44
2022/03/09 06:12:24;;;;;;;29.00;27.20;;;18.60;49.30;;;;;;5053639;28;20476;-44
2022/03/09 06:14:51;;;;;;;27.93;26.17;;;18.60;48.60;;;;;;5053771;28;20451;-43
2022/03/09 06:17:17;;;;;;;28.87;27.03;;;18.70;48.10;;;;;;5053594;28;20850;-44
2022/03/09 06:19:44;;;;;;;27.70;26.40;;;18.70;47.60;;;;;;5053389;28;20452;-44
2022/03/09 06:22:11;;;;;;;29.60;28.30;;;18.80;47.30;;;;;;5053466;28;20448;-43
2022/03/09 06:24:39;;;;;;;30.17;28.43;;;18.80;46.90;;;;;;5052669;28;20777;-44
2022/03/09 06:27:06;;;;;;;28.73;27.13;;;18.80;46.50;;;;;;5053219;28;20468;-45
2022/03/09 06:29:32;;;;;;;29.03;27.70;;;18.90;46.20;;;;;;5052913;28;20445;-44
2022/03/09 06:32:00;;;;;;;29.30;28.07;;;18.90;46.00;;;;;;5053157;28;20813;-43
2022/03/09 06:34:27;;;;;;;29.50;27.90;;;18.90;45.80;;;;;;5053310;28;20483;-45
2022/03/09 06:36:54;;;;;;;27.27;25.97;;;18.90;45.50;;;;;;5053209;28;20449;-44
2022/03/09 06:39:21;;;;;;;29.07;27.00;;;18.90;45.30;;;;;;5052964;28;20448;-44
2022/03/09 06:41:49;;;;;;;27.70;26.33;;;18.90;45.10;;;;;;5053177;28;20452;-43
2022/03/09 06:44:17;;;;;;;28.60;26.97;;;18.90;44.90;;;;;;5053228;28;20446;-44
2022/03/09 06:46:43;;;;;;;28.40;26.90;;;19.00;44.90;;;;;;5052955;28;20543;-44
2022/03/09 06:49:10;;;;;;;29.17;27.77;;;18.90;44.60;;;;;;5052856;28;20441;-44
2022/03/09 06:51:38;;;;;;;28.60;27.23;;;18.90;44.50;;;;;;5053020;28;20547;-44
2022/03/09 06:54:05;;;;;;;26.57;25.37;;;18.90;44.30;;;;;;5052861;28;20507;-44
2022/03/09 06:56:32;;;;;;;28.00;26.60;;;19.00;44.20;;;;;;5052967;28;20455;-44
2022/03/09 06:59:00;;;;;;;27.33;26.00;;;19.00;44.10;;;;;;5052494;28;20480;-46
2022/03/09 07:01:26;;;;;;;27.33;26.10;;;19.00;43.90;;;;;;5052782;28;20449;-44
2022/03/09 07:03:53;;;;;;;27.30;26.10;;;19.00;43.80;;;;;;5052825;28;20436;-44
2022/03/09 07:06:20;;;;;;;26.23;25.03;;;19.00;43.70;;;;;;5052662;28;20493;-46
2022/03/09 07:08:47;;;;;;;26.97;25.77;;;19.00;43.60;;;;;;5052666;28;20813;-43
2022/03/09 07:11:13;;;;;;;26.10;24.90;;;19.00;43.40;;;;;;5052618;28;20456;-45
2022/03/09 07:13:41;;;;;;;26.90;25.50;;;18.90;43.30;;;;;;5052368;28;20488;-42
2022/03/09 07:16:09;;;;;;;27.20;26.00;;;18.90;43.20;;;;;;5052473;28;20942;-43
2022/03/09 07:18:35;;;;;;;27.10;25.90;;;18.90;43.10;;;;;;5052256;28;20468;-46
2022/03/09 07:21:02;;;;;;;27.20;25.97;;;18.90;43.10;;;;;;5052357;28;20445;-43
2022/03/09 07:23:29;;;;;;;27.87;26.57;;;18.90;43.00;;;;;;5052376;28;20439;-43
2022/03/09 07:25:55;;;;;;;26.27;25.17;;;19.00;43.00;;;;;;5052314;28;20934;-43
2022/03/09 07:28:22;;;;;;;26.40;25.30;;;18.90;42.80;;;;;;5052066;28;20752;-43
2022/03/09 07:30:49;;;;;;;27.70;26.30;;;18.90;42.80;;;;;;5052200;28;20453;-43
2022/03/09 07:33:17;;;;;;;27.33;25.83;;;18.90;42.70;;;;;;5052234;28;20546;-44
2022/03/09 07:35:45;;;;;;;25.90;24.50;;;18.90;42.60;;;;;;5052008;28;20448;-44
2022/03/09 07:38:13;;;;;;;26.33;25.00;;;18.90;42.60;;;;;;5051996;28;20468;-43
2022/03/09 07:40:39;;;;;;;27.07;25.93;;;18.90;42.60;;;;;;5052150;28;20474;-43
2022/03/09 07:43:06;;;;;;;26.90;25.70;;;18.80;42.50;;;;;;5051924;28;20793;-43
2022/03/09 07:45:33;;;;;;;25.80;24.80;;;18.80;42.40;;;;;;5051976;28;20448;-42
2022/03/09 07:48:00;;;;;;;27.20;26.00;;;18.80;42.40;;;;;;5051681;28;20849;-43
2022/03/09 07:50:28;;;;;;;27.83;26.53;;;18.80;42.30;;;;;;5051961;28;20463;-43
2022/03/09 07:52:56;;;;;;;27.23;26.03;;;18.80;42.30;;;;;;5051809;28;20484;-45
2022/03/09 07:55:23;;;;;;;26.47;25.37;;;18.80;42.20;;;;;;5051916;28;20453;-45
2022/03/09 07:57:49;;;;;;;25.97;24.77;;;18.70;42.10;;;;;;5051384;28;20514;-43
2022/03/09 08:00:17;;;;;;;26.50;25.40;;;18.70;42.10;;;;;;5051749;28;20444;-44
2022/03/09 08:02:44;;;;;;;27.57;26.37;;;18.70;42.10;;;;;;5051696;28;20796;-43
2022/03/09 08:05:10;;;;;;;27.30;25.90;;;18.70;42.00;;;;;;5051750;28;20810;-43
2022/03/09 08:07:38;;;;;;;27.20;26.00;;;18.70;42.00;;;;;;5051610;28;20471;-43
2022/03/09 08:10:06;;;;;;;28.17;27.03;;;18.60;42.00;;;;;;5051506;28;20441;-44
2022/03/09 08:12:33;;;;;;;27.77;26.57;;;18.60;41.90;;;;;;5051625;28;20447;-43
2022/03/09 08:14:59;;;;;;;27.90;26.70;;;18.60;41.90;;;;;;5051616;28;20565;-46
2022/03/09 08:17:26;;;;;;;27.30;26.20;;;18.60;41.90;;;;;;5051506;28;20461;-43
2022/03/09 08:19:53;;;;;;;29.33;27.83;;;18.60;41.90;;;;;;5051261;28;20452;-43
2022/03/09 08:22:20;;;;;;;27.73;26.53;;;18.60;41.80;;;;;;5051498;28;20443;-43
2022/03/09 08:24:49;;;;;;;27.00;26.00;;;18.60;41.90;;;;;;5051790;28;20443;-43
2022/03/09 08:27:16;;;;;;;27.27;26.07;;;18.60;41.90;;;;;;5051311;28;20469;-45
2022/03/09 08:29:43;;;;;;;27.90;26.70;;;18.60;42.00;;;;;;5051127;28;20451;-46
2022/03/09 08:32:10;;;;;;;28.00;26.90;;;18.80;42.10;;;;;;5051434;28;20806;-44
2022/03/09 08:34:37;;;;;;;28.10;26.90;;;19.10;41.80;;;;;;5051404;28;20483;-43
2022/03/09 08:37:04;;;;;;;27.20;26.00;;;19.20;41.50;;;;;;5051169;28;20495;-43
2022/03/09 08:39:31;;;;;;;26.90;25.80;;;19.30;41.30;;;;;;5051136;28;20813;-43
2022/03/09 08:41:59;;;;;;;26.80;25.67;;;19.40;41.10;;;;;;5051215;28;20444;-43
2022/03/09 08:44:25;;;;;;;27.80;26.50;;;19.40;40.80;;;;;;5051334;28;20938;-43
2022/03/09 08:46:53;;;;;;;27.43;26.33;;;19.50;40.80;;;;;;5051237;28;20757;-43
2022/03/09 08:49:20;;;;;;;26.57;25.47;;;19.50;40.70;;;;;;5054704;28;20448;-48
2022/03/09 08:51:46;;;;;;;26.33;25.20;;;19.60;40.60;;;;;;5055383;28;20451;-46
2022/03/09 08:54:13;;;;;;;25.97;24.87;;;19.60;40.50;;;;;;5055150;28;20996;-43
2022/03/09 08:56:40;;;;;;;27.73;26.63;;;19.60;40.40;;;;;;5054919;28;20440;-43
2022/03/09 08:59:08;;;;;;;28.10;26.80;;;19.60;40.20;;;;;;5054959;28;20817;-43
2022/03/09 09:01:35;;;;;;;25.83;24.83;;;19.70;40.20;;;;;;5055026;28;20468;-42
2022/03/09 09:04:02;;;;;;;27.13;25.90;;;19.70;40.10;;;;;;5055068;28;20448;-43
2022/03/09 09:06:29;;;;;;;27.10;26.00;;;19.70;40.10;;;;;;5055035;28;20455;-47
2022/03/09 09:08:55;;;;;;;28.30;27.10;;;19.70;40.00;;;;;;5054670;28;20467;-43
2022/03/09 09:11:22;;;;;;;26.60;25.50;;;19.70;39.90;;;;;;5054836;28;20821;-44
2022/03/09 09:13:49;;;;;;;27.17;26.03;;;19.70;39.80;;;;;;5054831;28;20553;-43
2022/03/09 09:16:17;;;;;;;26.07;24.97;;;19.70;39.70;;;;;;5054715;28;20444;-43
2022/03/09 09:18:44;;;;;;;26.63;25.53;;;19.70;39.70;;;;;;5054686;28;20464;-46
2022/03/09 09:21:11;;;;;;;27.70;26.60;;;19.70;39.60;;;;;;5054809;28;20444;-43
2022/03/09 09:23:39;;;;;;;26.97;25.77;;;19.70;39.50;;;;;;5054422;28;20437;-43
2022/03/09 09:26:06;;;;;;;28.10;27.00;;;19.70;39.50;;;;;;5054553;28;20452;-43
2022/03/09 09:28:32;;;;;;;27.40;26.30;;;19.70;39.50;;;;;;5054270;28;20484;-43
2022/03/09 09:30:59;;;;;;;27.50;26.50;;;19.70;39.50;;;;;;5054506;28;20455;-43
2022/03/09 09:33:28;;;;;;;28.43;27.23;;;19.70;39.50;;;;;;5054361;28;21023;-43
2022/03/09 09:35:54;;;;;;;28.27;26.97;;;19.70;39.50;;;;;;5054679;28;20448;-43
2022/03/09 09:38:21;;;;;;;29.43;28.23;;;19.70;39.40;;;;;;5054118;28;20475;-44
2022/03/09 09:40:51;;;;;;;28.20;27.10;;;19.70;39.40;;;;;;5054234;28;20952;-43
2022/03/09 09:43:18;;;;;;;27.47;26.37;;;19.70;39.40;;;;;;5054363;28;20448;-48
2022/03/09 09:45:45;;;;;;;29.13;28.03;;;19.70;39.30;;;;;;5054261;28;20444;-44
2022/03/09 09:48:13;;;;;;;29.53;28.33;;;19.70;39.20;;;;;;5054059;28;20468;-43
2022/03/09 09:50:43;;;;;;;28.47;27.23;;;19.70;39.20;;;;;;5054008;28;20947;-44
2022/03/09 09:53:12;;;;;;;28.20;27.10;;;19.70;39.20;;;;;;5054273;28;20467;-46
2022/03/09 09:55:39;;;;;;;27.60;26.50;;;19.70;39.10;;;;;;5054102;28;20452;-42
2022/03/09 09:58:06;;;;;;;29.23;27.87;;;19.70;39.10;;;;;;5053715;28;20487;-43
2022/03/09 10:00:34;;;;;;;28.20;27.20;;;19.70;39.10;;;;;;5052483;28;20452;-44
2022/03/09 10:03:01;;;;;;;28.20;27.10;;;19.70;39.00;;;;;;5053892;28;20471;-44
2022/03/09 10:05:28;;;;;;;28.73;27.63;;;19.70;39.00;;;;;;5053940;28;20444;-44
2022/03/09 10:08:17;;;;;;;29.30;28.20;;;19.70;39.00;;;;;;5053590;28;20829;-44
2022/03/09 10:10:47;;;;;;;27.93;26.90;;;19.60;38.90;;;;;;5053738;28;20444;-44
2022/03/09 10:13:16;;;;;;;30.37;29.17;;;19.60;38.90;;;;;;5054252;28;20445;-47
2022/03/09 10:15:45;;;;;;;28.70;27.60;;;19.60;38.90;;;;;;5053600;28;20824;-44
2022/03/09 10:18:13;;;;;;;29.30;28.10;;;19.60;38.80;;;;;;5053478;28;20475;-48
2022/03/09 10:20:40;;;;;;;30.63;28.87;;;19.60;38.80;;;;;;5053545;28;20821;-46
2022/03/09 10:23:08;;;;;;;28.40;27.30;;;19.60;38.80;;;;;;5053543;28;20448;-47
2022/03/09 10:25:38;;;;;;;27.73;26.63;;;19.60;38.80;;;;;;5053430;28;20444;-44
2022/03/09 10:28:07;;;;;;;29.30;28.10;;;19.60;38.80;;;;;;5053219;28;20985;-47
2022/03/09 10:30:36;;;;;;;29.73;28.53;;;19.60;38.80;;;;;;5053412;28;20444;-50
2022/03/09 10:33:07;;;;;;;28.07;26.97;;;19.60;38.80;;;;;;5053388;28;20480;-46
2022/03/09 10:35:43;;;;;;;29.20;28.10;;;19.60;38.80;;;;;;5053350;28;20480;-48
2022/03/09 10:38:25;;;;;;;27.17;25.97;;;19.60;38.80;;;;;;5053114;28;20475;-46
2022/03/09 10:40:56;;;;;;;27.87;26.77;;;19.70;38.80;;;;;;5053122;28;20946;-47
2022/03/09 10:43:27;;;;;;;27.63;26.53;;;19.70;38.80;;;;;;5053066;28;20445;-47
2022/03/09 10:46:02;;;;;;;29.90;28.70;;;19.80;38.80;;;;;;5053205;28;20444;-44
2022/03/09 10:48:50;;;;;;;29.23;28.10;;;19.90;38.70;;;;;;5052889;28;20456;-48
2022/03/09 10:51:26;;;;;;;29.80;28.60;;;20.20;38.60;;;;;;5053080;28;20807;-47
2022/03/09 10:53:53;;;;;;;28.27;27.17;;;20.20;38.30;;;;;;5052939;28;20488;-47
2022/03/09 10:56:22;;;;;;;28.43;27.30;;;20.30;38.20;;;;;;5052952;28;20467;-46
2022/03/09 10:58:49;;;;;;;29.93;28.73;;;20.40;38.10;;;;;;5052547;28;20852;-46
2022/03/09 11:01:17;;;;;;;29.60;28.40;;;20.50;38.00;;;;;;5052823;28;20447;-44
2022/03/09 11:03:43;;;;;;;27.60;26.50;;;20.50;37.80;;;;;;5052729;28;20506;-46
2022/03/09 11:06:11;;;;;;;27.13;26.03;;;20.60;37.80;;;;;;5052791;28;20449;-44
2022/03/09 11:08:41;;;;;;;28.93;27.77;;;20.60;37.70;;;;;;5052296;28;21028;-43
2022/03/09 11:11:08;;;;;;;28.80;27.67;;;20.70;37.70;;;;;;5052200;28;20452;-44
2022/03/09 11:13:38;;;;;;;28.50;27.30;;;20.70;37.60;;;;;;5052557;28;20880;-45
2022/03/09 11:16:06;;;;;;;29.00;27.83;;;20.70;37.40;;;;;;5052576;28;20448;-43
2022/03/09 11:18:34;;;;;;;28.30;27.20;;;20.80;37.40;;;;;;5052141;28;20829;-44
2022/03/09 11:21:02;;;;;;;29.77;28.57;;;20.80;37.20;;;;;;5052525;28;20455;-43
2022/03/09 11:23:31;;;;;;;28.27;27.25;;;20.90;37.10;;;;;;5053978;28;20475;-44
2022/03/09 11:26:02;;;;;;;31.17;29.97;;;20.90;37.10;;;;;;5057070;28;20195;-45
2022/03/09 11:28:31;;;;;;;30.27;28.97;;;21.00;36.90;;;;;;5052154;28;20896;-46
2022/03/09 11:31:00;;;;;;;28.50;27.40;;;21.10;36.90;;;;;;5052237;28;20449;-45
2022/03/09 11:33:45;;;;;;;30.63;29.33;;;21.20;36.70;;;;;;5053246;28;20471;-45
2022/03/09 11:36:37;;;;;;;28.87;27.77;;;21.40;36.50;;;;;;5052144;28;20470;-45
2022/03/09 11:39:19;;;;;;;30.77;29.57;;;21.40;36.20;;;;;;5051938;28;20799;-45
2022/03/09 11:41:46;;;;;;;31.13;29.80;;;21.60;36.30;;;;;;5052162;28;20472;-44
2022/03/09 11:44:29;;;;;;;32.90;31.60;;;21.90;36.20;;;;;;5064235;28;20443;-45
2022/03/09 11:47:07;;;;;;;32.87;31.57;;;22.50;35.90;;;;;;5072036;28;20787;-44
2022/03/09 11:49:36;;;;;;;31.17;29.97;;;24.00;35.40;;;;;;5071724;28;20789;-46
2022/03/09 11:52:09;;;;;;;30.50;29.27;;;25.40;33.70;;;;;;5071840;28;20527;-45
2022/03/09 11:54:49;;;;;;;30.93;29.63;;;26.50;32.00;;;;;;5056373;28;20503;-45
2022/03/09 12:00:14;;;;;;;32.00;30.70;;;28.00;29.80;;;;;;5041359;28;20880;-54
2022/03/09 12:02:43;;;;;;;30.83;29.53;;;28.70;29.10;;;;;;5032353;28;20528;-54
2022/03/09 12:05:37;;;;;;;27.63;26.43;;;29.00;28.50;;;;;;5031236;28;20460;-58
2022/03/09 12:08:05;;;;;;;29.50;28.30;;;29.30;28.10;;;;;;5031723;28;21116;-54
2022/03/09 12:10:43;;;;;;;31.03;29.83;;;29.50;27.80;;;;;;5031846;28;20448;-58
2022/03/09 12:13:13;;;;;;;31.67;30.47;;;29.90;27.60;;;;;;5031807;28;20445;-55
2022/03/09 12:16:07;;;;;;;29.97;28.77;;;30.30;27.20;;;;;;5032103;28;21088;-53
2022/03/09 12:18:37;;;;;;;29.60;28.40;;;30.80;26.90;;;;;;5032071;28;20471;-55
2022/03/09 12:21:04;;;;;;;30.70;29.50;;;31.20;26.50;;;;;;5032852;28;20452;-57
2022/03/09 12:23:31;;;;;;;32.00;30.70;;;31.40;26.10;;;;;;5031526;28;20930;-56
2022/03/09 12:25:58;;;;;;;32.17;30.87;;;31.70;25.80;;;;;;5032429;28;20448;-51
2022/03/09 12:28:52;;;;;;;29.23;28.03;;;32.00;25.60;;;;;;5031987;28;20467;-57
2022/03/09 12:31:23;;;;;;;29.50;28.33;;;32.20;25.30;;;;;;5008442;28;20445;-56
2022/03/09 12:33:54;;;;;;;32.00;30.70;;;32.10;25.20;;;;;;5032976;28;20445;-58
2022/03/09 12:36:23;;;;;;;31.33;30.03;;;31.80;25.20;;;;;;5032621;28;20480;-53
2022/03/09 12:38:51;;;;;;;29.77;28.57;;;31.50;25.40;;;;;;5032251;28;20903;-57